Airfield :
LOGIN :

Register | Disclaimer

   EN    FR    IT 

 










Legend :    VFR   Marginal VFR   IFR   Intensive IFR   Very Intensive IFR
Visi :
Ceiling :
>= 8 km
>= 3000ft
5 to 8 km
1000 to 3000 ft
1500m to 5 km
500 to 1000 ft
800 to 1500m
200 to 500 ft
< 800m
< 200 ft
Symbols :   Thunderstorms  Fog  Heavy snow  Heavy precipitations  Wind > 20 kt
SIGMETs :     Misc.  Thunderstorms  Icing  Turbulence  Mountain Waves  Volcanic Ashes







- Airport Elevation : 160 ft
- IATA code : LRT
- Download approach charts


LFRH - Lorient Lann Bihoue

CURRENT METAR :
  • 231400Z AUTO 36013KT 330V030 9999 BKN020 OVC027 16/14 Q1022 BECMG 36015G25KT

EXPIRED METARs :
  • 231330Z AUTO 35012KT 310V020 9999 OVC018 17/16 Q1021 BECMG 36015G25KT
  • 231300Z AUTO 36012KT 330V030 9999 BKN018 BKN039 BKN120 18/16 Q1020 TEMPO RADZ OVC005 BECMG 36015G25KT
  • 231230Z AUTO 35012KT 9999 BKN012 BKN018 OVC038 17/17 Q1020 TEMPO RADZ BECMG 36015G25KT BKN015 OVC025
  • 231200Z AUTO 28013KT 250V010 3300 -RADZ BR BKN004 OVC008 17/17 Q1019 TEMPO 5000 RADZ OVC005 BECMG 36015G25KT
  • 231130Z AUTO 27014KT 9000 SCT006 BKN011 OVC016 18/18 Q1018 TEMPO RADZ OVC005 BECMG 36015G25KT

TAF TAF LFRH
Valid from the 23 at 12:00 until the 24 at 12:00 UTC


231100Z 2312/2412 27015G25KT 9999 BKN008 OVC012
PROB40
TEMPO 2312/2314 5000 RADZ OVC005
BECMG 2312/2314 36015G25KT BKN015 OVC025
BECMG 2318/2320 35010KT SCT035
BECMG 2406/2408 05010KT
No reported NOTAMs for that airfield.
1 SIGMET reported for the Brest FIR (LFRR) :
 
Severe turbulence
LFRR SIGMET 2 VALID 231100/231500 LFPW
LFRR BREST FIR/UIR SEV TURB FCST WI N4930 W00530 - N5000 W00200 - N5000 W00015 - N4945 W00015 - N4845 W00500 - N4930 W00530 FL350/430 STNR NC=



MET'MAP, your aeronautical weather chart ! - Copyright ORBIFLY December 2007 - Disclaimer

ORBIFLY MET'MAP TEAM :

Programming & Development : Alexandra Zaïnal
Concept & Development : Baudouin d'Aumeries
Co-Development & Prog : Marc-Olivier Méhu
Technical & hardware support : Manuel Goepfert

Contact : metmap@orbifly.com




SOURCES & CREDITS :

   NOAA